Terminal Aerodrome Forecast
Issued by NWS Portland, OR

Home | Current Version | Previous Version | Text Only | Print | Product List | Glossary On
Versions: 1 2 3 4 5 6 7 8 9 10 11 12 13 14 15 16 17 18 19 20
000
FTUS46 KPQR 222332
TAFHIO
TAF
KHIO 222332Z 2300/2324 VRB04KT P6SM -SHRAGS SCT035 BKN050 BKN100
     FM230400 00000KT P6SM SCT030 BKN060
     FM230700 00000KT 3SM BR SCT003 SCT045
     FM231000 00000KT 1/4SM FG VV002
     FM231700 00000KT 3SM BR BKN005
     FM231900 22004KT P6SM VCSH SCT020 SCT040=

USA.gov is the U.S. government's official web portal to all federal, state and local government web resources and services.